createdAt,value
2018-02-02T00:00:41.913Z,27.29
2018-02-02T00:03:12.222Z,27.46
2018-02-02T00:05:42.525Z,27.39
2018-02-02T00:08:12.784Z,27.11
2018-02-02T00:10:43.112Z,26.98
2018-02-02T00:13:13.393Z,27.26
2018-02-02T00:15:43.651Z,27.20
2018-02-02T00:18:13.958Z,26.95
2018-02-02T00:20:45.125Z,27.03
2018-02-02T00:23:15.428Z,26.95
2018-02-02T00:25:45.643Z,26.99
2018-02-02T00:28:15.891Z,26.71
2018-02-02T00:30:46.160Z,26.11
2018-02-02T00:33:16.441Z,26.04
2018-02-02T00:35:46.750Z,26.02
2018-02-02T00:38:17.040Z,25.97
2018-02-02T00:40:48.186Z,26.14
2018-02-02T00:43:19.151Z,25.85
2018-02-02T00:45:49.919Z,25.93
2018-02-02T00:48:20.259Z,25.45
2018-02-02T00:50:56.661Z,25.62
2018-02-02T00:53:27.901Z,25.37
2018-02-02T00:55:58.153Z,25.24
2018-02-02T00:58:28.401Z,25.11
2018-02-02T01:00:59.121Z,25.37
2018-02-02T01:03:30.077Z,25.03
2018-02-02T01:06:00.871Z,25.02
2018-02-02T01:08:31.097Z,24.97
2018-02-02T01:11:01.450Z,24.97
2018-02-02T01:13:32.910Z,24.86
2018-02-02T01:16:03.290Z,24.63
2018-02-02T01:18:33.621Z,24.62
2018-02-02T01:21:03.866Z,24.53
2018-02-02T01:23:34.940Z,24.63
2018-02-02T01:26:05.225Z,24.08
2018-02-02T01:28:36.246Z,23.98
2018-02-02T01:31:08.210Z,24.17
2018-02-02T01:33:39.604Z,23.97
2018-02-02T01:36:10.888Z,23.78
2018-02-02T01:38:42.377Z,23.74
2018-02-02T01:41:12.908Z,23.85
2018-02-02T01:43:46.005Z,23.74
2018-02-02T01:46:16.307Z,23.82
2018-02-02T01:48:46.579Z,23.47
2018-02-02T01:51:18.074Z,23.58
2018-02-02T01:53:50.166Z,23.33
2018-02-02T01:56:20.537Z,22.79
2018-02-02T01:58:50.815Z,22.75
2018-02-02T02:01:21.217Z,23.16
2018-02-02T02:03:52.468Z,23.18
2018-02-02T02:06:22.789Z,22.75
2018-02-02T02:08:53.090Z,22.73
2018-02-02T02:11:23.366Z,22.66
2018-02-02T02:13:53.600Z,22.48
2018-02-02T02:16:27.381Z,22.52
2018-02-02T02:18:57.796Z,22.36
2018-02-02T02:21:28.828Z,22.30
2018-02-02T02:23:59.970Z,22.63
2018-02-02T02:26:30.236Z,22.60
2018-02-02T02:29:00.686Z,22.36
2018-02-02T02:31:31.670Z,21.96
2018-02-02T02:34:01.925Z,21.94
2018-02-02T02:36:33.071Z,22.02
2018-02-02T02:39:03.555Z,21.97
2018-02-02T02:41:33.857Z,22.14
2018-02-02T02:44:05.071Z,22.11
2018-02-02T02:46:36.418Z,22.16
2018-02-02T02:49:07.771Z,21.93
2018-02-02T02:51:39.496Z,21.88
2018-02-02T02:54:10.833Z,21.79
2018-02-02T02:56:41.867Z,21.70
2018-02-02T02:59:13.146Z,21.54
2018-02-02T03:01:44.524Z,21.57
2018-02-02T03:04:15.631Z,21.61
2018-02-02T03:06:47.572Z,21.47
2018-02-02T03:09:18.510Z,21.50
2018-02-02T03:11:49.481Z,21.19
2018-02-02T03:14:20.651Z,20.98
2018-02-02T03:16:51.933Z,20.75
2018-02-02T03:19:23.337Z,20.62
2018-02-02T03:21:54.391Z,20.89
2018-02-02T03:24:25.130Z,20.95
2018-02-02T03:26:56.369Z,20.79
2018-02-02T03:29:27.703Z,20.87
2018-02-02T03:31:59.824Z,21.23
2018-02-02T03:34:30.789Z,21.28
2018-02-02T03:37:02.191Z,21.09
2018-02-02T03:39:33.468Z,20.83
2018-02-02T03:42:04.357Z,20.74
2018-02-02T03:44:35.764Z,20.67
2018-02-02T03:47:07.300Z,20.32
2018-02-02T03:49:38.299Z,20.09
2018-02-02T03:52:09.621Z,20.15
2018-02-02T03:54:40.753Z,19.89
2018-02-02T03:57:11.929Z,19.78
2018-02-02T03:59:43.157Z,19.49
2018-02-02T04:02:14.298Z,19.49
2018-02-02T04:04:45.237Z,19.53
2018-02-02T04:07:16.264Z,19.69
2018-02-02T04:09:47.414Z,19.63
2018-02-02T04:12:18.972Z,19.97
2018-02-02T04:14:50.304Z,19.90
2018-02-02T04:17:21.492Z,19.99
2018-02-02T04:19:52.397Z,19.39
2018-02-02T04:22:23.784Z,19.54
2018-02-02T04:24:55.948Z,19.22
2018-02-02T04:27:27.354Z,19.77
2018-02-02T04:29:59.428Z,19.65
2018-02-02T04:32:30.764Z,19.30
2018-02-02T04:35:02.122Z,18.96
2018-02-02T04:37:33.243Z,18.98
2018-02-02T04:40:04.182Z,18.88
2018-02-02T04:42:35.589Z,19.14
2018-02-02T04:45:06.724Z,19.46
2018-02-02T04:47:37.635Z,19.32
2018-02-02T04:50:08.809Z,19.37
2018-02-02T04:52:39.658Z,18.92
2018-02-02T04:55:10.629Z,18.71
2018-02-02T04:57:41.564Z,18.51
2018-02-02T05:00:12.150Z,18.86
2018-02-02T05:02:43.283Z,18.84
2018-02-02T05:05:14.608Z,19.08
2018-02-02T05:07:46.240Z,19.35
2018-02-02T05:10:17.321Z,18.54
2018-02-02T05:12:48.940Z,18.30
2018-02-02T05:15:20.108Z,18.37
2018-02-02T05:17:51.324Z,18.06
2018-02-02T05:20:22.326Z,18.29
2018-02-02T05:22:57.408Z,19.18
2018-02-02T05:25:28.717Z,19.12
2018-02-02T05:28:00.236Z,18.60
2018-02-02T05:30:31.137Z,17.90
2018-02-02T05:33:02.153Z,17.96
2018-02-02T05:35:33.710Z,18.07
2018-02-02T05:38:04.861Z,17.63
2018-02-02T05:40:35.999Z,18.13
2018-02-02T05:43:07.164Z,17.86
2018-02-02T05:45:38.174Z,18.00
2018-02-02T05:48:09.642Z,18.70
2018-02-02T05:50:41.008Z,17.76
2018-02-02T05:53:11.955Z,17.36
2018-02-02T05:55:42.987Z,17.74
2018-02-02T05:58:13.824Z,17.50
2018-02-02T06:00:45.174Z,17.03
2018-02-02T06:03:16.132Z,17.31
2018-02-02T06:05:47.248Z,17.03
2018-02-02T06:08:18.832Z,17.44
2018-02-02T06:10:50.131Z,17.52
2018-02-02T06:13:21.298Z,17.15
2018-02-02T06:15:53.441Z,16.72
2018-02-02T06:18:24.725Z,16.65
2018-02-02T06:20:55.546Z,16.69
2018-02-02T06:23:26.869Z,16.70
2018-02-02T06:25:57.828Z,17.01
2018-02-02T06:28:29.224Z,17.29
2018-02-02T06:31:00.499Z,17.78
2018-02-02T06:33:31.037Z,17.13
2018-02-02T06:36:02.602Z,17.20
2018-02-02T06:38:33.811Z,17.05
2018-02-02T06:41:05.080Z,16.97
2018-02-02T06:43:36.169Z,17.40
2018-02-02T06:46:06.936Z,18.08
2018-02-02T06:48:41.646Z,18.78
2018-02-02T06:51:13.616Z,18.70
2018-02-02T06:53:45.135Z,17.97
2018-02-02T06:56:16.494Z,17.33
2018-02-02T06:58:47.869Z,17.86
2018-02-02T07:01:19.206Z,17.65
2018-02-02T07:03:50.519Z,17.46
2018-02-02T07:06:21.681Z,17.07
2018-02-02T07:08:52.933Z,16.89
2018-02-02T07:11:23.941Z,16.57
2018-02-02T07:13:55.498Z,16.76
2018-02-02T07:16:26.666Z,17.50
2018-02-02T07:18:57.795Z,16.58
2018-02-02T07:21:28.968Z,16.15
2018-02-02T07:24:00.312Z,15.92
2018-02-02T07:26:31.347Z,15.94
2018-02-02T07:29:05.046Z,16.41
2018-02-02T07:31:36.401Z,16.19
2018-02-02T07:34:07.529Z,16.03
2018-02-02T07:36:38.280Z,16.12
2018-02-02T07:39:09.624Z,16.85
2018-02-02T07:41:40.733Z,17.03
2018-02-02T07:44:12.286Z,17.15
2018-02-02T07:46:44.014Z,17.12
2018-02-02T07:49:18.596Z,16.13
2018-02-02T07:51:49.431Z,16.42
2018-02-02T07:54:20.504Z,17.24
2018-02-02T07:56:56.872Z,16.16
2018-02-02T07:59:27.958Z,16.30
2018-02-02T08:01:58.228Z,17.19
2018-02-02T08:04:28.539Z,17.33
2018-02-02T08:06:58.791Z,17.84
2018-02-02T08:09:29.049Z,17.65
2018-02-02T08:11:59.269Z,17.84
2018-02-02T08:14:30.533Z,17.38
2018-02-02T08:17:01.925Z,17.02
2018-02-02T08:19:33.438Z,16.68
2018-02-02T08:22:04.997Z,16.64
2018-02-02T08:24:36.507Z,17.58
2018-02-02T08:27:07.477Z,17.34
2018-02-02T08:29:38.212Z,16.63
2018-02-02T08:32:09.359Z,16.81
2018-02-02T08:34:40.496Z,17.06
2018-02-02T08:37:12.064Z,16.94
2018-02-02T08:39:43.531Z,17.51
2018-02-02T08:42:14.554Z,17.85
2018-02-02T08:44:54.787Z,17.06
2018-02-02T08:47:25.846Z,16.81
2018-02-02T08:49:57.228Z,17.38
2018-02-02T08:52:28.600Z,16.37
2018-02-02T08:54:59.534Z,16.73
2018-02-02T08:57:31.028Z,16.62
2018-02-02T09:00:03.751Z,16.74
2018-02-02T09:02:35.142Z,16.19
2018-02-02T09:05:06.694Z,15.74
2018-02-02T09:07:38.098Z,16.14
2018-02-02T09:10:09.598Z,16.02
2018-02-02T09:12:40.578Z,16.17
2018-02-02T09:15:11.633Z,15.97
2018-02-02T09:17:42.650Z,15.97
2018-02-02T09:20:14.089Z,15.74
2018-02-02T09:22:44.938Z,14.79
2018-02-02T09:25:15.462Z,15.55
2018-02-02T09:27:45.568Z,15.92
2018-02-02T09:30:16.501Z,16.75
2018-02-02T09:32:47.474Z,17.42
2018-02-02T09:35:18.407Z,15.57
2018-02-02T09:37:49.269Z,15.08
2018-02-02T09:40:20.105Z,14.82
2018-02-02T09:42:51.259Z,15.17
2018-02-02T09:45:22.566Z,14.82
2018-02-02T09:47:53.585Z,14.88
2018-02-02T09:50:24.904Z,15.59
2018-02-02T09:52:56.000Z,16.09
2018-02-02T09:55:26.905Z,16.44
2018-02-02T09:57:58.132Z,15.70
2018-02-02T10:00:29.376Z,15.72
2018-02-02T10:03:01.009Z,15.58
2018-02-02T10:05:32.352Z,15.01
2018-02-02T10:08:04.080Z,15.36
2018-02-02T10:10:35.539Z,15.54
2018-02-02T10:13:06.667Z,15.35
2018-02-02T10:15:38.340Z,15.38
2018-02-02T10:18:09.475Z,15.23
2018-02-02T10:20:40.704Z,15.53
2018-02-02T10:23:11.998Z,15.38
2018-02-02T10:25:42.952Z,15.42
2018-02-02T10:28:14.712Z,15.81
2018-02-02T10:30:46.097Z,15.52
2018-02-02T10:33:17.341Z,15.80
2018-02-02T10:35:48.736Z,15.50
2018-02-02T10:38:19.897Z,16.21
2018-02-02T10:40:51.867Z,15.90
2018-02-02T10:43:23.310Z,15.35
2018-02-02T10:45:54.593Z,15.01
2018-02-02T10:48:28.856Z,14.78
2018-02-02T10:51:00.507Z,15.01
2018-02-02T10:53:31.404Z,15.28
2018-02-02T10:56:02.713Z,15.52
2018-02-02T10:58:33.848Z,15.37
2018-02-02T11:01:10.034Z,14.82
2018-02-02T11:03:45.651Z,14.77
2018-02-02T11:06:16.487Z,15.47
2018-02-02T11:08:47.789Z,14.16
2018-02-02T11:11:19.130Z,13.97
2018-02-02T11:13:50.683Z,13.83
2018-02-02T11:16:21.724Z,13.66
2018-02-02T11:18:52.761Z,13.71
2018-02-02T11:21:24.286Z,14.53
2018-02-02T11:23:55.010Z,15.47
2018-02-02T11:26:25.992Z,15.89
2018-02-02T11:28:57.235Z,15.81
2018-02-02T11:31:28.379Z,15.19
2018-02-02T11:33:59.325Z,14.70
2018-02-02T11:36:30.265Z,14.48
2018-02-02T11:39:01.713Z,14.85
2018-02-02T11:41:33.286Z,14.95
2018-02-02T11:44:04.414Z,14.23
2018-02-02T11:46:35.512Z,15.44
2018-02-02T11:49:06.556Z,15.26
2018-02-02T11:51:37.532Z,14.35
2018-02-02T11:54:08.707Z,14.04
2018-02-02T11:56:39.672Z,14.00
2018-02-02T11:59:10.652Z,13.70
2018-02-02T12:01:42.213Z,14.19
2018-02-02T12:04:13.349Z,14.32
2018-02-02T12:06:44.940Z,14.76
2018-02-02T12:09:16.000Z,15.48
2018-02-02T12:11:46.958Z,15.74
2018-02-02T12:14:18.050Z,15.04
2018-02-02T12:16:49.026Z,14.79
2018-02-02T12:19:19.928Z,14.73
2018-02-02T12:21:51.896Z,14.84
2018-02-02T12:24:27.619Z,14.76
2018-02-02T12:30:08.203Z,13.84
2018-02-02T12:32:44.360Z,14.35
2018-02-02T12:35:30.003Z,13.62
2018-02-02T12:38:01.085Z,14.35
2018-02-02T12:40:31.924Z,13.68
2018-02-02T12:43:03.180Z,14.32
2018-02-02T12:45:34.865Z,14.43
2018-02-02T12:48:06.445Z,13.93
2018-02-02T12:50:48.084Z,13.89
2018-02-02T12:53:19.380Z,13.40
2018-02-02T12:55:50.928Z,15.12
2018-02-02T12:58:22.516Z,15.09
2018-02-02T13:00:53.799Z,14.24
2018-02-02T13:03:24.365Z,13.76
2018-02-02T13:05:55.697Z,13.22
2018-02-02T13:08:27.125Z,13.32
2018-02-02T13:10:58.597Z,13.96
2018-02-02T13:13:30.312Z,13.95
2018-02-02T13:16:01.528Z,13.69
2018-02-02T13:18:32.653Z,14.52
2018-02-02T13:21:03.943Z,13.48
2018-02-02T13:23:34.718Z,13.52
2018-02-02T13:26:06.097Z,13.25
2018-02-02T13:28:37.163Z,13.20
2018-02-02T13:31:08.154Z,12.88
2018-02-02T13:33:39.728Z,12.86
2018-02-02T13:36:11.262Z,12.76
2018-02-02T13:38:43.026Z,12.79
2018-02-02T13:41:14.336Z,13.39
2018-02-02T13:43:45.664Z,13.08
2018-02-02T13:46:17.110Z,12.46
2018-02-02T13:48:48.283Z,12.56
2018-02-02T13:51:19.573Z,13.02
2018-02-02T13:53:50.964Z,13.08
2018-02-02T13:56:21.966Z,12.93
2018-02-02T13:58:52.790Z,13.55
2018-02-02T14:01:24.098Z,13.45
2018-02-02T14:03:55.039Z,13.63
2018-02-02T14:06:26.274Z,13.51
2018-02-02T14:08:57.064Z,13.73
2018-02-02T14:11:28.287Z,12.55
2018-02-02T14:13:59.184Z,13.27
2018-02-02T14:16:30.129Z,13.59
2018-02-02T14:19:05.068Z,13.52
2018-02-02T14:21:36.194Z,13.58
2018-02-02T14:24:07.308Z,12.88
2018-02-02T14:26:38.460Z,12.80
2018-02-02T14:29:09.832Z,12.98
2018-02-02T14:31:41.371Z,12.80
2018-02-02T14:34:12.432Z,13.17
2018-02-02T14:36:43.662Z,13.36
2018-02-02T14:39:15.242Z,12.78
2018-02-02T14:41:46.331Z,13.16
2018-02-02T14:44:19.360Z,13.35
2018-02-02T14:46:50.352Z,12.71
2018-02-02T14:49:21.841Z,12.69
2018-02-02T14:51:52.922Z,12.29
2018-02-02T14:54:23.929Z,12.23
2018-02-02T14:56:55.186Z,12.63
2018-02-02T14:59:26.625Z,13.09
2018-02-02T15:01:58.032Z,13.24
2018-02-02T15:04:29.319Z,12.31
2018-02-02T15:07:00.628Z,12.34
2018-02-02T15:09:31.413Z,12.78
2018-02-02T15:12:03.628Z,14.07
2018-02-02T15:14:35.129Z,13.16
2018-02-02T15:17:06.485Z,12.83
2018-02-02T15:19:37.747Z,12.66
2018-02-02T15:22:09.338Z,12.79
2018-02-02T15:24:40.692Z,12.63
2018-02-02T15:27:11.874Z,12.42
2018-02-02T15:29:43.427Z,12.75
2018-02-02T15:32:14.578Z,12.96
2018-02-02T15:34:45.605Z,14.18
2018-02-02T15:37:16.412Z,12.98
2018-02-02T15:39:48.260Z,12.78
2018-02-02T15:42:19.161Z,12.87
2018-02-02T15:44:50.693Z,12.81
2018-02-02T15:47:23.065Z,12.63
2018-02-02T15:49:54.405Z,13.29
2018-02-02T15:52:25.485Z,13.73
2018-02-02T15:54:56.728Z,14.03
2018-02-02T15:57:28.473Z,13.23
2018-02-02T16:00:00.641Z,13.31
2018-02-02T16:02:31.728Z,13.23
2018-02-02T16:05:02.924Z,13.20
2018-02-02T16:07:34.061Z,12.98
2018-02-02T16:10:05.436Z,12.93
2018-02-02T16:12:36.750Z,13.34
2018-02-02T16:15:07.752Z,13.49
2018-02-02T16:17:38.453Z,13.98
2018-02-02T16:20:10.200Z,13.83
2018-02-02T16:22:41.322Z,13.63
2018-02-02T16:25:12.499Z,13.68
2018-02-02T16:27:43.827Z,13.99
2018-02-02T16:30:15.326Z,14.39
2018-02-02T16:32:46.297Z,14.41
2018-02-02T16:35:17.682Z,14.77
2018-02-02T16:37:48.919Z,15.79
2018-02-02T16:40:20.204Z,15.56
2018-02-02T16:42:51.083Z,15.81
2018-02-02T16:45:22.253Z,15.95
2018-02-02T16:47:53.684Z,16.41
2018-02-02T16:50:24.936Z,16.56
2018-02-02T16:52:56.033Z,16.66
2018-02-02T16:55:26.586Z,16.87
2018-02-02T16:57:57.806Z,17.00
2018-02-02T17:00:28.090Z,17.26
2018-02-02T17:02:58.291Z,17.75
2018-02-02T17:05:28.588Z,17.89
2018-02-02T17:07:59.245Z,17.91
2018-02-02T17:10:29.564Z,17.92
2018-02-02T17:13:00.006Z,18.01
2018-02-02T17:15:30.292Z,18.32
2018-02-02T17:18:00.567Z,18.31
2018-02-02T17:20:30.868Z,18.51
2018-02-02T17:23:01.298Z,18.82
2018-02-02T17:25:31.617Z,19.25
2018-02-02T17:28:02.042Z,19.61
2018-02-02T17:30:32.358Z,19.05
2018-02-02T17:33:02.649Z,19.04
2018-02-02T17:35:32.970Z,19.15
2018-02-02T17:38:03.233Z,19.52
2018-02-02T17:40:33.557Z,19.90
2018-02-02T17:43:03.800Z,20.16
2018-02-02T17:45:34.118Z,20.83
2018-02-02T17:48:04.421Z,21.52
2018-02-02T17:50:34.657Z,21.36
2018-02-02T17:53:04.981Z,21.48
2018-02-02T17:55:35.294Z,21.41
2018-02-02T17:58:05.572Z,21.21
2018-02-02T18:00:41.017Z,21.26
2018-02-02T18:03:11.677Z,21.08
2018-02-02T18:05:42.024Z,20.83
2018-02-02T18:08:12.508Z,20.87
2018-02-02T18:10:42.923Z,20.98
2018-02-02T18:13:13.245Z,21.10
2018-02-02T18:15:43.556Z,21.41
2018-02-02T18:18:13.952Z,21.83
2018-02-02T18:20:44.237Z,22.22
2018-02-02T18:23:14.494Z,22.39
2018-02-02T18:25:44.791Z,22.75
2018-02-02T18:28:15.040Z,23.22
2018-02-02T18:30:45.342Z,23.51
2018-02-02T18:33:15.690Z,23.73
2018-02-02T18:35:46.030Z,24.11
2018-02-02T18:38:16.280Z,24.30
2018-02-02T18:40:46.609Z,24.58
2018-02-02T18:43:16.905Z,24.95
2018-02-02T18:45:47.232Z,25.06
2018-02-02T18:48:17.528Z,25.08
2018-02-02T18:50:47.819Z,24.92
2018-02-02T18:53:18.102Z,24.75
2018-02-02T18:55:48.367Z,24.95
2018-02-02T18:58:18.593Z,25.34
2018-02-02T19:00:48.829Z,25.30
2018-02-02T19:03:19.986Z,25.41
2018-02-02T19:05:50.284Z,25.56
2018-02-02T19:08:20.530Z,25.61
2018-02-02T19:10:50.829Z,26.00
2018-02-02T19:13:21.095Z,26.17
2018-02-02T19:15:51.372Z,26.03
2018-02-02T19:18:21.649Z,26.46
2018-02-02T19:20:51.914Z,26.21
2018-02-02T19:23:22.149Z,26.55
2018-02-02T19:25:52.414Z,26.67
2018-02-02T19:28:22.684Z,27.27
2018-02-02T19:30:53.038Z,27.19
2018-02-02T19:33:23.374Z,26.42
2018-02-02T19:35:53.611Z,26.81
2018-02-02T19:38:23.851Z,26.38
2018-02-02T19:40:54.272Z,26.95
2018-02-02T19:43:24.533Z,26.74
2018-02-02T19:45:54.768Z,27.32
2018-02-02T19:48:25.006Z,27.98
2018-02-02T19:50:55.245Z,28.61
2018-02-02T19:53:25.534Z,29.03
2018-02-02T19:55:55.875Z,29.67
2018-02-02T19:58:26.163Z,30.10
2018-02-02T20:00:56.429Z,29.84
2018-02-02T20:03:27.675Z,29.63
2018-02-02T20:05:58.115Z,30.07
2018-02-02T20:08:28.415Z,31.28
2018-02-02T20:10:58.669Z,31.30
2018-02-02T20:13:28.908Z,31.00
2018-02-02T20:15:59.221Z,31.49
2018-02-02T20:18:29.506Z,31.22
2018-02-02T20:20:59.737Z,31.58
2018-02-02T20:23:30.068Z,30.83
2018-02-02T20:26:00.381Z,30.22
2018-02-02T20:28:30.668Z,28.84
2018-02-02T20:31:01.044Z,29.93
2018-02-02T20:33:31.403Z,29.31
2018-02-02T20:36:01.721Z,29.56
2018-02-02T20:38:32.145Z,30.53
2018-02-02T20:41:02.661Z,29.79
2018-02-02T20:43:32.959Z,30.31
2018-02-02T20:46:03.305Z,30.49
2018-02-02T20:48:33.671Z,30.27
2018-02-02T20:51:09.854Z,30.26
2018-02-02T20:53:40.606Z,30.98
2018-02-02T20:56:11.063Z,31.54
2018-02-02T20:58:41.499Z,31.22
2018-02-02T21:01:11.813Z,30.41
2018-02-02T21:03:42.069Z,30.35
2018-02-02T21:06:12.385Z,30.05
2018-02-02T21:08:42.655Z,29.30
2018-02-02T21:11:12.904Z,29.12
2018-02-02T21:13:43.165Z,30.48
2018-02-02T21:16:14.139Z,30.59
2018-02-02T21:18:44.424Z,30.88
2018-02-02T21:21:14.645Z,30.24
2018-02-02T21:23:44.881Z,30.48
2018-02-02T21:26:15.135Z,31.30
2018-02-02T21:28:46.176Z,31.88
2018-02-02T21:31:16.453Z,30.82
2018-02-02T21:33:47.697Z,31.32
2018-02-02T21:36:17.980Z,31.91
2018-02-02T21:38:48.239Z,32.75
2018-02-02T21:41:18.569Z,33.03
2018-02-02T21:43:48.980Z,33.17
2018-02-02T21:46:19.505Z,33.11
2018-02-02T21:48:49.928Z,32.56
2018-02-02T21:51:20.354Z,31.58
2018-02-02T21:53:50.701Z,31.39
2018-02-02T21:56:20.978Z,30.91
2018-02-02T21:58:51.348Z,31.89
2018-02-02T22:01:21.681Z,31.93
2018-02-02T22:03:52.048Z,32.24
2018-02-02T22:06:22.430Z,31.60
2018-02-02T22:08:52.831Z,31.91
2018-02-02T22:11:23.126Z,31.11
2018-02-02T22:13:53.415Z,31.06
2018-02-02T22:16:23.736Z,31.09
2018-02-02T22:18:54.049Z,31.35
2018-02-02T22:21:25.159Z,30.87
2018-02-02T22:23:56.622Z,31.03
2018-02-02T22:26:27.835Z,30.76
2018-02-02T22:28:58.116Z,30.98
2018-02-02T22:31:28.376Z,31.12
2018-02-02T22:33:59.520Z,30.81
2018-02-02T22:36:30.976Z,30.87
2018-02-02T22:39:01.299Z,31.33
2018-02-02T22:41:31.537Z,30.78
2018-02-02T22:44:02.012Z,31.80
2018-02-02T22:46:32.289Z,31.13
2018-02-02T22:49:02.556Z,31.42
2018-02-02T22:51:32.811Z,31.00
2018-02-02T22:54:03.054Z,31.27
2018-02-02T22:56:33.362Z,31.68
2018-02-02T22:59:03.575Z,31.40
2018-02-02T23:01:33.904Z,30.65
2018-02-02T23:04:04.141Z,30.16
2018-02-02T23:06:34.376Z,30.60
2018-02-02T23:09:04.672Z,31.32
2018-02-02T23:11:35.001Z,31.31
2018-02-02T23:14:05.284Z,31.33
2018-02-02T23:16:35.561Z,31.08
2018-02-02T23:19:05.802Z,30.65
2018-02-02T23:21:36.601Z,30.62
2018-02-02T23:24:07.840Z,29.73
2018-02-02T23:26:38.107Z,30.47
2018-02-02T23:29:08.375Z,29.87
2018-02-02T23:31:39.421Z,28.75
2018-02-02T23:34:10.356Z,29.23
2018-02-02T23:36:41.508Z,29.70
2018-02-02T23:39:11.746Z,29.51
2018-02-02T23:41:42.030Z,29.17
2018-02-02T23:44:12.399Z,28.46
2018-02-02T23:46:42.806Z,28.09
2018-02-02T23:49:13.050Z,28.19
2018-02-02T23:51:43.325Z,27.89
2018-02-02T23:54:13.640Z,28.18
2018-02-02T23:56:44.070Z,28.01
2018-02-02T23:59:14.326Z,27.51
